首页
METAR-TAF:

METAR-TAF

机场 :

斯科茨代爾, 亞利桑那州, 美国

纬度: 33-37-22N, 经度: 111-54-38W, 海拔: 460米

当前天气观测

该预报发布于35分钟前的17:53 UTC
风速4节,风向西南
温度 16°C
湿度 29%
气压 1022 hPa
能見度: 16.1公里
天空无云

METAR: KSDL 281753Z 22004KT 10SM CLR 16/M02 A3017 RMK AO2 SLP204 T01611017 10161 20067 58003

时间: 11:28 (18:28 UTC)

预报

该预报发布于53分钟前的17:35 UTC
预报有效从28日的 18点(UTC)到 29日的 18点(UTC)
风速4节,风向多变
能見度: 10公里
天空无云
从 28日的 2000点(UTC)
风速5节,风向西转西南
能見度: 10公里
散云层高于25000英尺
从 29日的 0200点(UTC)
风速3节,风向多变
能見度: 10公里
多云层高于20000英尺

TAF: KSDL 281735Z 2818/2918 VRB04KT P6SM SKC FM282000 24005KT P6SM SCT250 FM290200 VRB03KT P6SM BKN200

超过4000个机场的气象观测和天气预报(METAR&TAF报告)。

可查询的气象台以黄色和红色小点在地图上表示。

将鼠标移到小点上方,可查看气象台名称。

然后点击查看天气观测和预报。

如需切换地图:点击带黑十字的绿色按钮放大地图;点击带横线的绿色按钮缩小地图;或者点击绿色箭头查看邻近地区的地图。


METAR-TAF: